Time;durP1;ratioP1;P1;durP2;ratioP2;P2;SDS_P1;SDS_P2;PMS_P1;PMS_P2;Temp;Humidity;BMP_temperature;BMP_pressure;BME280_temperature;BME280_humidity;BME280_pressure;Samples;Min_cycle;Max_cycle;Signal;HPM_P1;HPM_P2
2023/06/04 00:00:47;;;;;;;3.03;2.63;;;21.00;96.70;;;;;;5056860;28;20049;-72
2023/06/04 00:03:15;;;;;;;4.32;3.17;;;21.00;96.70;;;;;;5063176;28;20045;-72
2023/06/04 00:05:44;;;;;;;3.83;3.15;;;21.00;96.70;;;;;;5063384;28;20063;-72
2023/06/04 00:08:12;;;;;;;8.88;3.45;;;20.90;96.70;;;;;;5040712;28;20072;-72
2023/06/04 00:10:40;;;;;;;3.80;2.63;;;20.70;96.70;;;;;;5094270;28;20040;-72
2023/06/04 00:13:08;;;;;;;4.47;2.83;;;20.70;96.70;;;;;;5061661;28;20651;-72
2023/06/04 00:15:36;;;;;;;3.83;3.05;;;20.80;96.70;;;;;;5061202;28;20054;-72
2023/06/04 00:18:05;;;;;;;3.63;3.10;;;20.60;96.70;;;;;;5061056;28;20086;-72
2023/06/04 00:20:33;;;;;;;4.72;2.85;;;20.50;96.70;;;;;;5062520;28;20044;-72
2023/06/04 00:23:01;;;;;;;3.85;3.00;;;20.60;96.70;;;;;;5061435;28;20120;-72
2023/06/04 00:25:29;;;;;;;4.10;3.05;;;20.60;96.70;;;;;;5062765;28;20053;-72
2023/06/04 00:27:57;;;;;;;3.80;2.72;;;20.60;96.70;;;;;;5061003;28;20567;-72
2023/06/04 00:30:26;;;;;;;4.40;2.63;;;20.50;96.70;;;;;;5060846;28;20818;-72
2023/06/04 00:32:54;;;;;;;4.68;3.20;;;20.40;96.70;;;;;;5060853;28;20041;-72
2023/06/04 00:35:23;;;;;;;3.38;2.70;;;20.40;96.70;;;;;;5060496;28;20045;-72
2023/06/04 00:37:52;;;;;;;3.53;2.95;;;20.30;96.70;;;;;;5062469;28;20048;-72
2023/06/04 00:40:19;;;;;;;5.25;2.97;;;20.40;96.70;;;;;;5061344;28;20044;-72
2023/06/04 00:42:49;;;;;;;4.43;2.90;;;20.50;96.70;;;;;;5062768;28;20036;-72
2023/06/04 00:45:20;;;;;;;3.95;3.30;;;20.50;96.70;;;;;;5060935;28;20131;-72
2023/06/04 00:47:48;;;;;;;3.45;2.85;;;20.50;96.70;;;;;;5045120;28;20139;-72
2023/06/04 00:50:16;;;;;;;2.95;2.53;;;20.50;96.70;;;;;;5062047;28;20047;-72
2023/06/04 00:52:45;;;;;;;4.35;3.33;;;20.50;96.70;;;;;;5060586;28;20063;-72
2023/06/04 00:55:13;;;;;;;5.78;2.83;;;20.50;96.70;;;;;;5061893;28;20044;-72
2023/06/04 00:57:41;;;;;;;3.97;3.15;;;20.50;96.70;;;;;;5066538;28;20122;-72
2023/06/04 01:00:10;;;;;;;5.07;2.97;;;20.40;96.70;;;;;;5064420;28;20048;-72
2023/06/04 01:02:40;;;;;;;4.32;3.22;;;20.40;96.70;;;;;;5064158;28;20068;-74
2023/06/04 01:05:16;;;;;;;3.28;2.97;;;20.30;96.70;;;;;;5058361;28;20041;-73
2023/06/04 01:07:47;;;;;;;6.78;3.03;;;20.30;96.70;;;;;;5047820;28;20059;-72
2023/06/04 01:10:15;;;;;;;5.15;3.60;;;20.30;96.70;;;;;;5064489;28;20051;-73
2023/06/04 01:12:43;;;;;;;4.93;2.80;;;20.40;96.70;;;;;;5064180;28;20048;-72
2023/06/04 01:15:13;;;;;;;5.43;3.20;;;20.30;96.70;;;;;;5063615;28;20060;-72
2023/06/04 01:17:43;;;;;;;3.55;3.15;;;20.20;96.70;;;;;;5064315;28;20057;-72
2023/06/04 01:20:34;;;;;;;3.63;2.67;;;20.20;96.70;;;;;;5064014;28;20461;-72
2023/06/04 01:23:33;;;;;;;5.90;2.83;;;20.40;96.70;;;;;;5065031;28;20032;-72
2023/06/04 01:26:03;;;;;;;4.05;3.20;;;20.30;96.70;;;;;;5065976;28;20044;-72
2023/06/04 01:28:32;;;;;;;4.38;3.30;;;20.20;96.70;;;;;;5063639;28;20044;-72
2023/06/04 01:31:01;;;;;;;4.65;3.10;;;20.20;96.70;;;;;;5065146;28;20041;-72
2023/06/04 01:33:29;;;;;;;3.40;3.05;;;20.20;96.70;;;;;;5062065;28;20044;-72
2023/06/04 01:35:58;;;;;;;4.78;2.70;;;20.20;96.70;;;;;;5063727;28;20044;-72
2023/06/04 01:38:27;;;;;;;3.80;3.28;;;20.20;96.70;;;;;;5063577;28;20585;-72
2023/06/04 01:40:57;;;;;;;3.45;2.80;;;20.10;96.70;;;;;;5065733;28;20045;-73
2023/06/04 01:43:25;;;;;;;4.28;2.80;;;20.20;96.70;;;;;;5065089;28;20466;-72
2023/06/04 01:45:54;;;;;;;4.43;2.80;;;20.30;96.70;;;;;;5063315;28;20075;-73
2023/06/04 01:48:23;;;;;;;4.70;3.17;;;20.30;96.70;;;;;;5065312;28;20110;-72
2023/06/04 01:50:51;;;;;;;3.30;2.80;;;20.30;96.70;;;;;;5063152;28;20098;-72
2023/06/04 01:53:19;;;;;;;5.18;2.80;;;20.20;96.70;;;;;;5065557;28;20055;-73
2023/06/04 01:55:49;;;;;;;3.42;2.85;;;20.10;96.70;;;;;;5063897;28;20040;-72
2023/06/04 01:58:26;;;;;;;3.55;2.80;;;20.10;96.70;;;;;;5063418;28;20056;-72
2023/06/04 02:00:55;;;;;;;4.80;3.05;;;20.10;96.70;;;;;;5063692;28;20546;-72
2023/06/04 02:03:23;;;;;;;4.88;3.72;;;20.20;96.70;;;;;;5065185;28;20510;-72
2023/06/04 02:05:51;;;;;;;5.47;2.78;;;20.10;96.70;;;;;;5063735;28;20044;-72
2023/06/04 02:08:19;;;;;;;4.53;3.10;;;20.10;96.70;;;;;;5062705;28;20640;-72
2023/06/04 02:10:49;;;;;;;5.22;3.05;;;20.10;96.70;;;;;;5064802;28;20028;-72
2023/06/04 02:13:17;;;;;;;5.15;2.85;;;20.10;96.70;;;;;;5063188;28;20474;-73
2023/06/04 02:15:45;;;;;;;5.97;3.25;;;20.00;96.70;;;;;;5064695;28;20090;-73
2023/06/04 02:18:20;;;;;;;4.28;2.85;;;20.10;96.70;;;;;;5064678;28;20075;-72
2023/06/04 02:20:49;;;;;;;5.97;3.00;;;20.10;96.70;;;;;;5063765;28;20044;-72
2023/06/04 02:23:18;;;;;;;4.20;3.25;;;20.00;96.70;;;;;;5062716;28;20422;-73
2023/06/04 02:25:49;;;;;;;3.92;3.22;;;20.00;96.70;;;;;;5063218;28;20505;-72
2023/06/04 02:28:18;;;;;;;5.57;3.35;;;20.00;96.70;;;;;;5062362;28;20044;-72
2023/06/04 02:30:46;;;;;;;3.85;3.45;;;20.00;96.70;;;;;;5064331;28;20128;-72
2023/06/04 02:33:14;;;;;;;5.78;3.00;;;20.00;96.70;;;;;;5043040;28;20051;-72
2023/06/04 02:35:42;;;;;;;4.40;2.95;;;19.90;96.70;;;;;;5062165;28;20086;-72
2023/06/04 02:38:10;;;;;;;2.95;2.65;;;19.90;96.70;;;;;;5055514;28;20141;-72
2023/06/04 02:40:39;;;;;;;3.58;3.13;;;19.90;96.70;;;;;;5062751;28;20098;-72
2023/06/04 02:43:08;;;;;;;3.95;2.55;;;19.90;96.70;;;;;;5062606;28;20064;-72
2023/06/04 02:45:36;;;;;;;5.10;3.15;;;19.90;96.70;;;;;;5045994;28;20052;-72
2023/06/04 02:48:04;;;;;;;6.15;3.00;;;19.90;96.70;;;;;;5045929;28;20072;-72
2023/06/04 02:50:32;;;;;;;3.00;2.70;;;19.80;96.70;;;;;;5053769;28;20051;-72
2023/06/04 02:53:00;;;;;;;4.78;2.85;;;19.90;96.70;;;;;;5063647;28;20056;-72
2023/06/04 02:55:28;;;;;;;4.90;3.08;;;19.80;96.70;;;;;;5062509;28;20059;-72
2023/06/04 02:57:57;;;;;;;3.38;2.65;;;19.70;96.70;;;;;;5063690;28;20453;-72
2023/06/04 03:00:27;;;;;;;5.70;2.88;;;19.90;96.70;;;;;;5061387;28;20603;-72
2023/06/04 03:03:01;;;;;;;3.38;2.83;;;19.90;96.70;;;;;;5045772;28;20040;-72
2023/06/04 03:05:33;;;;;;;4.80;3.17;;;19.80;96.70;;;;;;5062453;28;20098;-73
2023/06/04 03:08:02;;;;;;;2.53;2.33;;;19.60;96.70;;;;;;5063294;28;20509;-72
2023/06/04 03:10:31;;;;;;;3.88;3.13;;;19.50;96.70;;;;;;5061875;28;20054;-72
2023/06/04 03:12:59;;;;;;;4.43;3.13;;;19.60;96.70;;;;;;5061870;28;20044;-73
2023/06/04 03:15:28;;;;;;;4.65;3.20;;;19.50;96.70;;;;;;5063311;28;20052;-72
2023/06/04 03:17:57;;;;;;;5.07;3.22;;;19.60;96.70;;;;;;5061635;28;20063;-72
2023/06/04 03:20:25;;;;;;;4.28;3.28;;;19.60;96.70;;;;;;5060808;28;20109;-72
2023/06/04 03:22:54;;;;;;;4.50;3.05;;;19.50;96.70;;;;;;5061818;28;20059;-72
2023/06/04 03:25:23;;;;;;;5.05;2.92;;;19.40;96.70;;;;;;5061681;28;20072;-72
2023/06/04 03:27:51;;;;;;;3.08;2.78;;;19.30;96.70;;;;;;5063170;28;20037;-72
2023/06/04 03:30:19;;;;;;;4.47;3.28;;;19.30;96.70;;;;;;5045236;28;20082;-72
2023/06/04 03:33:02;;;;;;;4.03;3.17;;;19.30;96.70;;;;;;5062078;28;20036;-72
2023/06/04 03:35:31;;;;;;;5.68;3.30;;;19.30;96.70;;;;;;5063418;28;20584;-72
2023/06/04 03:37:59;;;;;;;4.25;3.35;;;19.30;96.70;;;;;;5062405;28;20040;-72
2023/06/04 03:40:29;;;;;;;6.63;3.55;;;19.30;96.70;;;;;;5058898;28;20060;-72
2023/06/04 03:42:58;;;;;;;4.28;3.53;;;19.30;96.70;;;;;;5062941;28;20051;-73
2023/06/04 03:45:30;;;;;;;6.35;3.63;;;19.30;96.70;;;;;;5045293;28;20052;-72
2023/06/04 03:47:58;;;;;;;5.15;3.63;;;19.30;96.70;;;;;;5063509;28;20502;-72
2023/06/04 03:50:29;;;;;;;3.40;2.92;;;19.30;96.70;;;;;;5061002;28;20338;-73
2023/06/04 03:52:58;;;;;;;4.13;3.35;;;19.30;96.70;;;;;;5059796;28;21347;-72
2023/06/04 03:55:26;;;;;;;4.32;3.72;;;19.30;96.70;;;;;;5061323;28;20490;-72
2023/06/04 03:57:55;;;;;;;5.90;3.90;;;19.40;96.70;;;;;;5063043;28;20135;-72
2023/06/04 04:00:24;;;;;;;4.25;3.63;;;19.50;96.70;;;;;;5045038;28;20036;-72
2023/06/04 04:02:56;;;;;;;3.90;2.83;;;19.60;96.70;;;;;;5061185;28;20143;-72
2023/06/04 04:05:31;;;;;;;3.33;3.03;;;19.60;96.70;;;;;;5054566;28;20049;-72
2023/06/04 04:08:00;;;;;;;5.55;3.63;;;19.60;96.70;;;;;;5063045;28;20267;-72
2023/06/04 04:10:31;;;;;;;4.47;3.45;;;19.60;96.70;;;;;;5061277;28;20525;-73
2023/06/04 04:13:00;;;;;;;7.28;3.90;;;19.50;96.70;;;;;;5063157;28;20049;-72
2023/06/04 04:15:32;;;;;;;3.83;3.20;;;19.50;96.70;;;;;;5043156;28;20449;-72
2023/06/04 04:18:02;;;;;;;4.55;3.45;;;19.50;96.70;;;;;;5061812;28;20045;-72
2023/06/04 04:20:32;;;;;;;4.18;3.05;;;19.50;96.70;;;;;;5063017;28;20072;-73
2023/06/04 04:23:06;;;;;;;4.55;3.00;;;19.60;96.70;;;;;;5062012;28;20052;-72
2023/06/04 04:25:36;;;;;;;3.85;3.42;;;19.70;96.70;;;;;;5060398;28;20064;-73
2023/06/04 04:28:06;;;;;;;3.22;2.70;;;19.60;96.70;;;;;;5061376;28;20053;-72
2023/06/04 04:30:36;;;;;;;3.90;3.25;;;19.70;96.70;;;;;;5060806;28;20053;-72
2023/06/04 04:33:07;;;;;;;3.92;3.40;;;19.70;96.70;;;;;;5064341;28;20125;-73
2023/06/04 04:35:45;;;;;;;4.60;2.95;;;19.70;96.70;;;;;;5048427;28;20047;-72
2023/06/04 04:38:17;;;;;;;3.45;3.05;;;19.90;96.70;;;;;;5056230;28;20780;-72
2023/06/04 04:40:52;;;;;;;3.97;3.38;;;20.00;96.70;;;;;;5059090;28;20544;-72
2023/06/04 04:43:30;;;;;;;5.20;3.78;;;19.90;96.70;;;;;;5064966;28;20049;-72
2023/06/04 04:46:03;;;;;;;5.43;4.50;;;19.90;96.70;;;;;;5048041;28;20052;-73
2023/06/04 04:48:32;;;;;;;7.95;5.75;;;20.00;96.70;;;;;;5065210;28;20050;-73
2023/06/04 04:51:02;;;;;;;10.05;6.82;;;20.10;96.70;;;;;;5065984;28;20082;-72
2023/06/04 04:53:31;;;;;;;13.52;10.23;;;20.00;96.70;;;;;;5065130;28;20164;-72
2023/06/04 04:55:59;;;;;;;16.80;11.68;;;20.00;96.70;;;;;;5048550;28;20050;-72
2023/06/04 04:58:29;;;;;;;49.20;30.17;;;20.10;96.70;;;;;;5045081;28;20126;-73
2023/06/04 05:00:58;;;;;;;42.65;25.02;;;20.10;96.70;;;;;;5090831;28;20120;-73
2023/06/04 05:03:26;;;;;;;65.25;35.72;;;20.10;96.70;;;;;;5064762;28;20044;-72
2023/06/04 05:05:55;;;;;;;72.35;42.88;;;20.10;96.70;;;;;;5064240;28;20082;-72
2023/06/04 05:08:25;;;;;;;53.70;32.92;;;20.00;96.70;;;;;;5045105;28;20422;-72
2023/06/04 05:10:54;;;;;;;44.05;25.70;;;20.10;96.70;;;;;;5063255;28;20048;-73
2023/06/04 05:13:23;;;;;;;31.35;18.60;;;20.30;96.70;;;;;;5064690;28;20044;-73
2023/06/04 05:15:57;;;;;;;29.23;18.77;;;20.30;96.70;;;;;;5064490;28;20075;-72
2023/06/04 05:18:28;;;;;;;29.00;17.90;;;20.40;96.70;;;;;;5064453;28;20062;-72
2023/06/04 05:21:02;;;;;;;19.02;12.75;;;20.30;96.70;;;;;;5064255;28;20583;-73
2023/06/04 05:23:36;;;;;;;17.63;11.75;;;20.20;96.70;;;;;;5064426;28;20728;-72
2023/06/04 05:26:06;;;;;;;10.63;8.25;;;20.10;96.70;;;;;;5064328;28;20160;-72
2023/06/04 05:28:35;;;;;;;12.13;8.68;;;20.20;96.70;;;;;;5063991;28;20144;-73
2023/06/04 05:31:04;;;;;;;10.10;7.38;;;20.30;96.70;;;;;;5064410;28;20106;-72
2023/06/04 05:33:35;;;;;;;11.13;6.78;;;20.30;96.70;;;;;;5065586;28;20067;-73
2023/06/04 05:36:08;;;;;;;8.95;6.28;;;20.30;96.70;;;;;;5064316;28;20141;-72
2023/06/04 05:38:44;;;;;;;8.73;6.18;;;20.30;96.70;;;;;;5063878;28;20053;-72
2023/06/04 05:41:16;;;;;;;9.30;5.75;;;20.30;96.70;;;;;;5063376;28;20059;-72
2023/06/04 05:43:45;;;;;;;9.77;5.72;;;20.40;96.70;;;;;;5062230;28;20525;-73
2023/06/04 05:46:16;;;;;;;9.32;6.20;;;20.40;96.70;;;;;;5047963;28;20044;-72
2023/06/04 05:48:46;;;;;;;8.20;6.07;;;20.40;96.70;;;;;;5063702;28;20052;-72
2023/06/04 05:51:34;;;;;;;10.40;6.32;;;20.60;96.70;;;;;;5059808;28;20052;-73
2023/06/04 05:54:04;;;;;;;9.48;6.72;;;20.60;96.70;;;;;;5064036;28;20040;-72
2023/06/04 05:56:35;;;;;;;8.48;6.70;;;20.70;96.70;;;;;;5063899;28;20143;-72
2023/06/04 05:59:04;;;;;;;12.40;8.32;;;20.70;96.70;;;;;;5063740;28;20048;-73
2023/06/04 06:01:32;;;;;;;19.60;10.85;;;20.80;96.70;;;;;;5047454;28;20067;-72
2023/06/04 06:04:00;;;;;;;14.82;10.20;;;20.90;96.70;;;;;;5063395;28;20052;-73
2023/06/04 06:06:30;;;;;;;20.35;13.43;;;20.90;96.70;;;;;;5046358;28;20068;-72
2023/06/04 06:08:58;;;;;;;21.20;13.68;;;20.90;96.70;;;;;;5064658;28;20048;-72
2023/06/04 06:11:29;;;;;;;22.15;12.25;;;20.90;96.70;;;;;;5064862;28;20039;-72
2023/06/04 06:13:58;;;;;;;19.02;12.50;;;21.00;96.70;;;;;;5063454;28;20410;-72
2023/06/04 06:16:26;;;;;;;15.57;10.25;;;21.20;96.70;;;;;;5063315;28;20477;-72
2023/06/04 06:18:55;;;;;;;11.73;8.15;;;21.20;96.70;;;;;;5062455;28;20102;-72
2023/06/04 06:21:24;;;;;;;12.52;7.07;;;21.30;96.70;;;;;;5062405;28;20402;-72
2023/06/04 06:23:53;;;;;;;8.00;5.68;;;21.40;96.70;;;;;;5063245;28;20450;-72
2023/06/04 06:26:22;;;;;;;7.60;5.40;;;21.50;96.70;;;;;;5046717;28;20052;-72
2023/06/04 06:28:55;;;;;;;10.57;6.22;;;21.50;96.70;;;;;;5046956;28;20187;-72
2023/06/04 06:31:24;;;;;;;5.63;4.45;;;21.50;96.70;;;;;;5062428;28;20055;-72
2023/06/04 06:33:52;;;;;;;9.38;5.22;;;21.50;96.70;;;;;;5062692;28;20572;-73
2023/06/04 06:36:21;;;;;;;5.50;4.57;;;21.50;96.70;;;;;;5064580;28;20465;-72
2023/06/04 06:38:50;;;;;;;6.72;5.07;;;21.60;96.70;;;;;;5062858;28;20059;-72
2023/06/04 06:41:18;;;;;;;6.13;4.35;;;21.70;96.70;;;;;;5062755;28;20055;-72
2023/06/04 06:43:46;;;;;;;4.35;3.13;;;21.70;96.70;;;;;;5062533;28;20044;-72
2023/06/04 06:46:16;;;;;;;5.53;3.60;;;21.80;96.70;;;;;;5063882;28;20036;-72
2023/06/04 06:48:46;;;;;;;3.83;3.40;;;21.90;96.70;;;;;;5062676;28;20540;-72
2023/06/04 06:51:15;;;;;;;4.45;3.55;;;22.00;96.70;;;;;;5063667;28;20059;-72
2023/06/04 06:53:44;;;;;;;9.07;4.10;;;22.00;96.70;;;;;;5063968;28;20048;-72
2023/06/04 06:56:15;;;;;;;5.60;4.00;;;22.00;96.70;;;;;;5062848;28;20120;-72
2023/06/04 06:58:43;;;;;;;5.80;4.25;;;22.00;96.70;;;;;;5061828;28;20052;-72
2023/06/04 07:01:12;;;;;;;4.43;3.40;;;22.10;96.70;;;;;;5062873;28;20045;-72
2023/06/04 07:03:42;;;;;;;4.30;3.28;;;22.20;96.70;;;;;;5062708;28;20048;-73
2023/06/04 07:06:10;;;;;;;4.30;3.00;;;22.30;96.70;;;;;;5064113;28;20040;-72
2023/06/04 07:08:40;;;;;;;3.60;3.13;;;22.40;96.70;;;;;;5063633;28;20050;-72
2023/06/04 07:11:11;;;;;;;5.30;2.78;;;22.60;96.70;;;;;;5062762;28;20113;-72
2023/06/04 07:13:40;;;;;;;5.32;3.00;;;22.60;96.70;;;;;;5063785;28;20067;-72
2023/06/04 07:16:09;;;;;;;3.95;2.90;;;22.60;96.70;;;;;;5064013;28;20045;-73
2023/06/04 07:18:37;;;;;;;3.63;2.80;;;22.60;96.70;;;;;;5063377;28;20131;-72
2023/06/04 07:21:07;;;;;;;3.22;2.92;;;22.70;96.70;;;;;;5063828;28;20090;-72
2023/06/04 07:23:36;;;;;;;3.28;2.75;;;22.90;96.70;;;;;;5062892;28;20843;-72
2023/06/04 07:26:04;;;;;;;3.22;2.60;;;22.90;96.70;;;;;;5063788;28;20048;-72
2023/06/04 07:28:32;;;;;;;3.60;2.70;;;23.00;96.70;;;;;;5062026;28;20048;-72
2023/06/04 07:31:01;;;;;;;5.50;3.75;;;23.00;96.70;;;;;;5063810;28;20494;-72
2023/06/04 07:33:29;;;;;;;4.70;3.05;;;23.00;96.70;;;;;;5045363;28;20521;-72
2023/06/04 07:35:58;;;;;;;4.97;3.72;;;23.00;96.70;;;;;;5063792;28;20486;-72
2023/06/04 07:38:27;;;;;;;5.68;3.90;;;23.00;96.70;;;;;;5061375;28;20048;-72
2023/06/04 07:41:21;;;;;;;6.07;5.47;;;23.00;96.70;;;;;;5062998;28;20073;-72
2023/06/04 07:43:49;;;;;;;4.15;3.75;;;23.00;96.70;;;;;;5063145;28;20110;-73
2023/06/04 07:46:20;;;;;;;4.47;3.80;;;23.00;96.70;;;;;;5062667;28;20126;-72
2023/06/04 07:48:48;;;;;;;5.63;3.90;;;23.00;96.70;;;;;;5063550;28;20052;-72
2023/06/04 07:51:18;;;;;;;3.17;2.88;;;23.10;96.70;;;;;;5062903;28;20052;-72
2023/06/04 07:53:47;;;;;;;6.03;3.50;;;23.10;96.70;;;;;;5063380;28;20044;-72
2023/06/04 07:56:15;;;;;;;3.42;3.13;;;23.20;96.70;;;;;;5061652;28;20048;-72
2023/06/04 07:58:45;;;;;;;3.92;3.15;;;23.20;96.70;;;;;;5062514;28;20555;-72
2023/06/04 08:01:13;;;;;;;5.60;3.05;;;23.20;96.70;;;;;;5061627;28;20052;-72
2023/06/04 08:03:41;;;;;;;5.28;3.53;;;23.30;96.70;;;;;;5063004;28;20045;-72
2023/06/04 08:06:10;;;;;;;3.58;3.00;;;23.40;96.70;;;;;;5060607;28;20642;-73
2023/06/04 08:08:38;;;;;;;3.83;3.15;;;23.50;96.70;;;;;;5044556;28;20048;-72
2023/06/04 08:11:07;;;;;;;5.53;3.10;;;23.60;96.70;;;;;;5063373;28;20099;-72
2023/06/04 08:13:36;;;;;;;4.13;3.03;;;23.60;96.70;;;;;;5062625;28;20506;-72
2023/06/04 08:16:04;;;;;;;3.22;2.92;;;23.70;96.70;;;;;;5063291;28;20041;-72
2023/06/04 08:18:32;;;;;;;5.35;3.25;;;23.90;96.70;;;;;;5061480;28;20589;-72
2023/06/04 08:21:01;;;;;;;4.70;2.70;;;23.90;96.70;;;;;;5063328;28;20041;-73
2023/06/04 08:23:28;;;;;;;3.78;3.33;;;23.90;96.70;;;;;;5062693;28;20046;-72
2023/06/04 08:25:56;;;;;;;2.90;2.70;;;24.00;96.70;;;;;;5062512;28;20394;-72
2023/06/04 08:28:26;;;;;;;2.80;2.60;;;24.00;96.70;;;;;;5062665;28;20036;-73
2023/06/04 08:30:54;;;;;;;4.50;2.55;;;24.10;96.70;;;;;;5062945;28;20425;-72
2023/06/04 08:33:21;;;;;;;3.45;2.78;;;24.10;96.70;;;;;;5061057;28;20125;-73
2023/06/04 08:35:49;;;;;;;4.18;2.65;;;24.20;96.70;;;;;;5062872;28;20048;-72
2023/06/04 08:38:17;;;;;;;6.03;3.22;;;24.30;96.70;;;;;;5060575;28;20422;-72
2023/06/04 08:40:45;;;;;;;5.78;3.15;;;24.30;96.70;;;;;;5061097;28;20075;-72
2023/06/04 08:43:14;;;;;;;3.17;2.83;;;24.30;96.70;;;;;;5062997;28;20052;-73
2023/06/04 08:45:47;;;;;;;2.90;2.70;;;24.40;96.70;;;;;;5062674;28;20056;-72
2023/06/04 08:48:18;;;;;;;3.30;2.67;;;24.50;96.70;;;;;;5062617;28;20044;-72
2023/06/04 08:50:47;;;;;;;3.90;3.28;;;24.60;96.70;;;;;;5062850;28;20048;-72
2023/06/04 08:53:17;;;;;;;2.90;2.65;;;24.70;96.70;;;;;;5060849;28;20090;-72
2023/06/04 08:55:46;;;;;;;3.35;2.70;;;24.80;96.70;;;;;;5062997;28;20044;-72
2023/06/04 08:58:15;;;;;;;4.90;3.00;;;24.70;96.70;;;;;;5062851;28;20465;-72
2023/06/04 09:00:45;;;;;;;2.70;2.50;;;24.80;96.70;;;;;;5061106;28;20045;-72
2023/06/04 09:03:15;;;;;;;3.63;2.70;;;24.90;96.70;;;;;;5061561;28;20051;-73
2023/06/04 09:05:47;;;;;;;5.20;2.63;;;24.90;96.70;;;;;;5062764;28;20040;-72
2023/06/04 09:08:18;;;;;;;3.95;2.60;;;25.00;96.70;;;;;;5062050;28;20044;-72
2023/06/04 09:10:51;;;;;;;3.80;3.08;;;25.10;96.70;;;;;;5061064;28;20143;-73
2023/06/04 09:13:23;;;;;;;3.72;3.20;;;25.10;96.70;;;;;;5062647;28;20037;-72
2023/06/04 09:16:00;;;;;;;4.35;3.28;;;25.20;96.70;;;;;;5060293;28;20044;-73
2023/06/04 09:18:29;;;;;;;3.00;2.67;;;25.30;96.70;;;;;;5065132;28;20071;-72
2023/06/04 09:21:05;;;;;;;4.45;3.30;;;25.40;96.70;;;;;;5064446;28;20047;-72
2023/06/04 09:23:35;;;;;;;3.65;3.25;;;25.50;96.70;;;;;;5066041;28;20048;-72
2023/06/04 09:26:08;;;;;;;5.68;3.30;;;25.60;96.70;;;;;;5063896;28;20321;-72
2023/06/04 09:28:39;;;;;;;3.75;3.03;;;25.60;96.70;;;;;;5058079;28;20114;-72
2023/06/04 09:31:10;;;;;;;3.72;3.05;;;25.60;96.70;;;;;;5064250;28;20056;-73
2023/06/04 09:33:45;;;;;;;5.20;2.85;;;25.70;96.70;;;;;;5064397;28;20122;-72
2023/06/04 09:36:13;;;;;;;3.65;3.20;;;25.80;96.70;;;;;;5065910;28;20044;-72
2023/06/04 09:38:41;;;;;;;2.78;2.58;;;25.90;96.70;;;;;;5063935;28;20047;-72
2023/06/04 09:41:17;;;;;;;3.08;2.80;;;25.80;96.70;;;;;;5064093;28;20049;-72
2023/06/04 09:43:45;;;;;;;2.97;2.45;;;25.90;96.70;;;;;;5063786;28;20135;-73
2023/06/04 09:46:18;;;;;;;4.03;2.88;;;25.80;96.70;;;;;;5063643;28;20045;-72
2023/06/04 09:48:46;;;;;;;5.05;3.10;;;25.90;96.70;;;;;;5064137;28;20581;-71
2023/06/04 09:51:19;;;;;;;6.25;3.03;;;26.10;96.70;;;;;;5054583;28;20053;-72
2023/06/04 09:53:55;;;;;;;5.07;3.70;;;26.20;96.70;;;;;;5069597;28;20044;-72
2023/06/04 09:56:23;;;;;;;4.90;3.20;;;26.10;96.70;;;;;;5063568;28;20498;-73
2023/06/04 09:58:55;;;;;;;3.83;2.95;;;26.00;96.70;;;;;;5064735;28;20040;-71
2023/06/04 10:01:28;;;;;;;3.80;3.00;;;26.00;96.70;;;;;;5064612;28;20139;-75
2023/06/04 10:04:15;;;;;;;7.28;3.00;;;26.10;96.70;;;;;;5063531;28;20048;-72
2023/06/04 10:06:42;;;;;;;;;;;26.20;96.70;;;;;;5047698;28;20048;-72
2023/06/04 10:09:13;;;;;;;3.53;3.22;;;26.30;96.70;;;;;;5062247;28;20431;-73
2023/06/04 10:11:44;;;;;;;4.15;2.72;;;26.40;96.70;;;;;;5061036;28;21714;-71
2023/06/04 10:14:20;;;;;;;4.28;3.00;;;26.50;96.70;;;;;;5064484;28;20070;-71
2023/06/04 10:16:51;;;;;;;3.97;3.25;;;26.60;96.70;;;;;;5064872;28;20131;-71
2023/06/04 10:19:19;;;;;;;11.43;3.92;;;26.80;96.70;;;;;;5062505;28;20044;-75
2023/06/04 10:21:48;;;;;;;4.22;3.20;;;27.00;96.70;;;;;;5062725;28;20040;-73
2023/06/04 10:24:16;;;;;;;5.70;3.40;;;27.20;96.70;;;;;;5062640;28;20497;-72
2023/06/04 10:26:44;;;;;;;4.85;3.58;;;27.00;96.70;;;;;;5064424;28;20106;-73
2023/06/04 10:29:14;;;;;;;5.00;3.47;;;27.10;96.70;;;;;;5063602;28;20063;-73
2023/06/04 10:31:43;;;;;;;4.30;3.33;;;27.10;96.70;;;;;;5063037;28;20067;-73
2023/06/04 10:34:14;;;;;;;3.53;3.22;;;27.20;96.70;;;;;;5062354;28;20044;-73
2023/06/04 10:36:45;;;;;;;3.65;3.35;;;27.30;96.70;;;;;;5062997;28;20052;-75
2023/06/04 10:39:13;;;;;;;4.80;3.30;;;27.50;96.70;;;;;;5064103;28;20044;-75
2023/06/04 10:41:42;;;;;;;5.47;3.42;;;27.50;96.70;;;;;;5045925;28;20135;-73
2023/06/04 10:44:10;;;;;;;5.07;3.40;;;27.60;96.70;;;;;;5063547;28;20498;-72
2023/06/04 10:46:42;;;;;;;4.15;3.50;;;27.80;96.70;;;;;;5063310;28;20121;-72
2023/06/04 10:49:12;;;;;;;3.83;3.42;;;27.80;96.70;;;;;;5046249;28;20045;-74
2023/06/04 10:51:40;;;;;;;3.95;3.60;;;27.50;96.70;;;;;;5046156;28;20056;-72
2023/06/04 10:54:08;;;;;;;3.72;3.30;;;27.60;96.70;;;;;;5062085;28;20441;-72
2023/06/04 10:56:37;;;;;;;3.47;3.17;;;27.60;96.70;;;;;;5054467;28;20044;-78
2023/06/04 10:59:14;;;;;;;4.03;3.63;;;27.60;96.70;;;;;;5061756;28;20097;-74
2023/06/04 11:01:42;;;;;;;4.22;3.42;;;27.30;96.70;;;;;;5063380;28;20502;-75
2023/06/04 11:04:21;;;;;;;4.55;3.50;;;27.20;96.70;;;;;;5062761;28;20048;-74
2023/06/04 11:07:01;;;;;;;7.82;3.83;;;27.10;96.70;;;;;;5046551;28;20591;-74
2023/06/04 11:09:29;;;;;;;4.05;3.47;;;27.20;96.70;;;;;;5062170;28;20663;-72
2023/06/04 11:12:00;;;;;;;5.53;3.45;;;27.40;96.70;;;;;;5061838;28;20567;-72
2023/06/04 11:14:28;;;;;;;5.20;3.65;;;27.60;96.70;;;;;;5061136;28;20134;-73
2023/06/04 11:16:56;;;;;;;8.20;7.35;;;27.60;96.70;;;;;;5062811;28;20052;-72
2023/06/04 11:19:36;;;;;;;6.35;4.40;;;27.70;96.70;;;;;;5060502;28;20040;-72
2023/06/04 11:22:04;;;;;;;4.57;4.03;;;27.80;96.70;;;;;;5062411;28;20044;-73
2023/06/04 11:24:33;;;;;;;12.50;4.70;;;27.80;96.70;;;;;;5061976;28;20409;-72
2023/06/04 11:27:02;;;;;;;3.90;3.40;;;27.80;96.70;;;;;;5058372;28;20102;-71
2023/06/04 11:29:50;;;;;;;4.07;3.65;;;27.80;96.70;;;;;;5063202;28;20059;-72
2023/06/04 11:32:22;;;;;;;6.25;3.47;;;28.00;96.70;;;;;;5063692;28;20075;-71
2023/06/04 11:35:01;;;;;;;3.97;3.58;;;28.10;96.70;;;;;;5061156;28;20063;-73
2023/06/04 11:37:32;;;;;;;3.53;3.20;;;28.10;96.70;;;;;;5061168;28;20135;-70
2023/06/04 11:40:00;;;;;;;4.22;3.30;;;28.20;96.70;;;;;;5058644;28;20044;-73
2023/06/04 11:42:30;;;;;;;3.45;3.15;;;28.20;96.70;;;;;;5061401;28;20059;-71
2023/06/04 11:44:58;;;;;;;5.03;3.40;;;28.50;96.70;;;;;;5060744;28;20048;-71
2023/06/04 11:47:26;;;;;;;3.53;3.10;;;28.60;96.70;;;;;;5060964;28;20126;-72
2023/06/04 11:49:57;;;;;;;6.40;3.60;;;28.60;96.70;;;;;;5061374;28;20605;-74
2023/06/04 11:52:25;;;;;;;4.35;3.58;;;28.80;96.70;;;;;;5058351;28;20056;-72
2023/06/04 11:54:54;;;;;;;4.25;3.08;;;28.90;96.70;;;;;;5044174;28;20041;-71
2023/06/04 11:57:23;;;;;;;3.42;3.13;;;28.80;96.70;;;;;;5060844;28;20045;-71
2023/06/04 11:59:52;;;;;;;4.07;3.28;;;28.70;96.70;;;;;;5060051;28;20680;-72
2023/06/04 12:02:20;;;;;;;3.60;3.30;;;28.40;96.70;;;;;;5060971;28;20048;-73
2023/06/04 12:04:51;;;;;;;4.05;3.65;;;28.20;96.70;;;;;;5060041;28;20040;-74
2023/06/04 12:07:25;;;;;;;4.93;3.50;;;28.10;96.70;;;;;;5062361;28;20662;-74
2023/06/04 12:09:53;;;;;;;4.85;3.50;;;28.00;96.70;;;;;;5061720;28;20121;-74
2023/06/04 12:12:23;;;;;;;4.05;3.42;;;27.80;96.70;;;;;;5060150;28;20040;-73
2023/06/04 12:14:58;;;;;;;3.60;3.25;;;27.80;96.70;;;;;;5061983;28;20490;-73
2023/06/04 12:17:27;;;;;;;4.25;3.50;;;27.60;96.70;;;;;;5060700;28;20044;-73
2023/06/04 12:19:57;;;;;;;3.67;2.95;;;27.60;96.70;;;;;;5062304;28;20068;-73
2023/06/04 12:22:28;;;;;;;3.90;3.50;;;27.60;96.70;;;;;;5061078;28;20173;-72
2023/06/04 12:24:58;;;;;;;6.03;3.83;;;27.50;96.70;;;;;;5061123;28;20651;-72
2023/06/04 12:27:26;;;;;;;4.53;3.30;;;27.60;96.70;;;;;;5060989;28;20045;-72
2023/06/04 12:29:56;;;;;;;4.10;3.70;;;27.30;96.70;;;;;;5060463;28;20032;-72
2023/06/04 12:32:26;;;;;;;3.40;3.10;;;27.40;96.70;;;;;;5061301;28;20553;-72
2023/06/04 12:34:54;;;;;;;4.40;3.40;;;27.40;96.70;;;;;;5061377;28;20544;-73
2023/06/04 12:37:25;;;;;;;3.55;3.25;;;27.40;96.70;;;;;;5060285;28;20525;-74
2023/06/04 12:39:55;;;;;;;3.78;3.47;;;27.30;96.70;;;;;;5061798;28;20408;-75
2023/06/04 12:42:27;;;;;;;4.28;3.45;;;27.50;96.70;;;;;;5076048;28;20134;-72
2023/06/04 12:44:56;;;;;;;4.00;3.55;;;27.60;96.70;;;;;;5061143;28;20072;-72
2023/06/04 12:47:24;;;;;;;3.80;3.33;;;27.60;96.70;;;;;;5042773;28;20437;-72
2023/06/04 12:49:53;;;;;;;3.45;3.10;;;27.50;96.70;;;;;;5060715;28;20473;-73
2023/06/04 12:52:21;;;;;;;3.30;3.00;;;27.50;96.70;;;;;;5062538;28;20052;-74
2023/06/04 12:54:54;;;;;;;3.35;3.05;;;27.40;96.70;;;;;;5046677;28;20071;-72
2023/06/04 12:57:23;;;;;;;3.70;3.30;;;27.30;96.70;;;;;;5047280;28;20055;-72
2023/06/04 12:59:52;;;;;;;4.07;3.28;;;27.20;96.70;;;;;;5065177;28;20518;-72